Time;durP1;ratioP1;P1;durP2;ratioP2;P2;SDS_P1;SDS_P2;PMS_P1;PMS_P2;Temp;Humidity;BMP_temperature;BMP_pressure;BME280_temperature;BME280_humidity;BME280_pressure;Samples;Min_cycle;Max_cycle;Signal;HPM_P1;HPM_P2
2023/09/20 13:59:41;;;;;;;4.80;2.10;;;24.00;91.80;;;;;;5895804;23;20196;31
2023/09/20 14:30:36;;;;;;;4.37;2.47;;;24.00;92.00;;;;;;4767249;29;20242;-83
2023/09/20 14:33:09;;;;;;;7.90;2.47;;;23.80;92.60;;;;;;4767610;30;20224;-80
2023/09/20 14:35:49;;;;;;;9.23;2.20;;;23.90;92.90;;;;;;4791465;29;20220;-85
2023/09/20 14:38:39;;;;;;;5.80;2.20;;;23.70;93.30;;;;;;4825645;29;20206;-83
2023/09/20 14:41:44;;;;;;;5.20;2.30;;;23.90;93.80;;;;;;4824541;29;20330;-82
2023/09/20 14:44:22;;;;;;;4.13;2.10;;;23.50;94.10;;;;;;4824454;29;20298;-82
2023/09/20 14:47:18;;;;;;;5.07;2.10;;;23.40;94.10;;;;;;4832826;29;20417;-82
2023/09/20 14:49:49;;;;;;;7.77;2.70;;;23.50;94.40;;;;;;4839671;29;20655;-82
2023/09/20 14:52:18;;;;;;;5.43;2.20;;;23.60;94.60;;;;;;4840274;29;20218;-81
2023/09/20 14:54:47;;;;;;;4.73;1.93;;;23.60;94.10;;;;;;4839865;29;20206;-82
2023/09/20 14:57:18;;;;;;;4.53;2.33;;;23.50;94.30;;;;;;4825299;29;20211;-82
2023/09/20 14:59:46;;;;;;;4.67;2.07;;;23.60;94.00;;;;;;4841744;29;20546;-82
2023/09/20 15:02:25;;;;;;;4.93;2.20;;;23.60;94.60;;;;;;4825386;29;20209;-80
2023/09/20 15:04:55;;;;;;;4.67;2.17;;;23.50;94.50;;;;;;4825317;29;20232;-81
2023/09/20 15:07:26;;;;;;;6.23;2.03;;;23.50;95.30;;;;;;4824608;29;20568;-83
2023/09/20 15:10:02;;;;;;;7.07;2.63;;;23.20;95.60;;;;;;4841540;29;20194;-83
2023/09/20 15:12:38;;;;;;;5.67;2.37;;;23.30;95.50;;;;;;4825670;29;20214;-82
2023/09/20 15:15:22;;;;;;;7.67;2.30;;;23.40;95.40;;;;;;4825297;29;20268;-82
2023/09/20 15:17:52;;;;;;;5.57;2.10;;;23.20;95.20;;;;;;4839987;29;20266;-81
2023/09/20 15:20:24;;;;;;;3.83;2.10;;;23.10;95.40;;;;;;4840048;29;20650;-82
2023/09/20 15:22:56;;;;;;;4.47;2.07;;;22.90;95.40;;;;;;4839697;29;20198;-83
2023/09/20 15:25:29;;;;;;;4.50;2.40;;;22.80;95.80;;;;;;4840923;29;20287;-81
2023/09/20 15:27:59;;;;;;;4.83;2.53;;;22.70;96.20;;;;;;4840895;29;20277;-82
2023/09/20 15:30:31;;;;;;;4.43;2.10;;;22.80;96.50;;;;;;4825522;29;20182;-83
2023/09/20 15:33:02;;;;;;;5.97;2.40;;;22.80;96.60;;;;;;4810500;29;20225;-81
2023/09/20 15:35:32;;;;;;;4.83;2.20;;;22.80;96.60;;;;;;4840584;29;20263;-82
2023/09/20 15:38:03;;;;;;;7.30;2.40;;;22.70;96.80;;;;;;4840941;29;20658;-81
2023/09/20 15:40:35;;;;;;;4.93;2.40;;;22.70;97.00;;;;;;4824985;29;20229;-81
2023/09/20 15:43:07;;;;;;;7.60;2.30;;;22.60;97.20;;;;;;4839712;29;20191;-80
2023/09/20 15:45:48;;;;;;;3.27;2.20;;;22.60;97.70;;;;;;4839295;29;20236;-82
2023/09/20 15:48:17;;;;;;;6.27;2.57;;;22.40;97.70;;;;;;4805329;29;20202;-82
2023/09/20 15:50:48;;;;;;;4.37;2.03;;;22.60;98.20;;;;;;4821679;29;20227;-82
2023/09/20 15:53:18;;;;;;;7.20;2.07;;;22.20;97.90;;;;;;4806414;29;20219;-82
2023/09/20 15:55:51;;;;;;;4.73;2.17;;;22.20;98.20;;;;;;4823140;29;20237;-82
2023/09/20 15:58:29;;;;;;;6.00;2.00;;;22.20;98.40;;;;;;4839311;29;20563;-82
2023/09/20 16:00:58;;;;;;;6.27;2.10;;;22.30;98.90;;;;;;4839299;29;20202;-82
2023/09/20 16:03:38;;;;;;;7.27;2.30;;;22.40;98.80;;;;;;4836910;29;20198;-82
2023/09/20 16:06:10;;;;;;;10.83;2.83;;;22.30;98.80;;;;;;4839703;29;20224;-82
2023/09/20 16:08:38;;;;;;;4.30;2.20;;;22.30;99.30;;;;;;4838865;29;20221;-83
2023/09/20 16:11:13;;;;;;;3.87;2.03;;;22.10;99.60;;;;;;4838721;29;20210;-81
2023/09/20 16:13:48;;;;;;;6.90;2.60;;;22.20;99.60;;;;;;4838479;29;20337;-84
2023/09/20 16:16:32;;;;;;;3.40;2.17;;;22.00;99.90;;;;;;4837653;29;20206;-80
2023/09/20 16:19:02;;;;;;;6.27;2.40;;;22.10;99.90;;;;;;4823576;29;20618;-80
2023/09/20 16:21:38;;;;;;;4.40;2.30;;;22.00;99.90;;;;;;4839032;29;20716;-82
2023/09/20 16:24:13;;;;;;;6.73;2.40;;;22.00;99.90;;;;;;4838480;29;20288;-80
2023/09/20 16:26:42;;;;;;;5.23;2.27;;;21.90;99.90;;;;;;4838382;29;20240;-80
2023/09/20 16:29:17;;;;;;;5.67;2.37;;;21.90;99.90;;;;;;4839310;29;20209;-83
2023/09/20 16:31:47;;;;;;;4.10;2.50;;;21.80;99.90;;;;;;4838982;29;20206;-82
2023/09/20 16:34:27;;;;;;;6.70;2.60;;;21.70;99.90;;;;;;4824520;29;20213;-83
2023/09/20 16:36:55;;;;;;;7.07;2.37;;;21.60;99.90;;;;;;4837985;29;20234;-83
2023/09/20 16:39:24;;;;;;;6.60;2.77;;;21.60;99.90;;;;;;4838258;29;20651;-83
2023/09/20 16:41:54;;;;;;;6.07;2.53;;;21.50;99.90;;;;;;4838950;29;20209;-83
2023/09/20 16:44:28;;;;;;;7.20;3.10;;;21.40;99.90;;;;;;4838330;29;20206;-83
2023/09/20 16:47:08;;;;;;;5.50;2.90;;;21.30;99.90;;;;;;4839065;29;20252;-84
2023/09/20 16:49:55;;;;;;;6.00;2.90;;;21.20;99.90;;;;;;4837294;29;20214;-83
2023/09/20 16:52:30;;;;;;;7.20;2.90;;;21.10;99.90;;;;;;4839039;29;20581;-83
2023/09/20 16:55:09;;;;;;;7.93;2.90;;;20.80;99.90;;;;;;4839125;29;20216;-82
2023/09/20 16:57:39;;;;;;;6.23;2.83;;;20.90;99.90;;;;;;4843625;29;20190;-83
2023/09/20 17:00:19;;;;;;;4.23;2.73;;;20.80;99.90;;;;;;4842197;29;20233;-84
2023/09/20 17:03:09;;;;;;;6.67;2.90;;;20.80;99.90;;;;;;4842232;29;20321;-82
2023/09/20 17:05:53;;;;;;;5.63;3.00;;;20.70;99.90;;;;;;4841981;29;20221;-80
2023/09/20 17:08:24;;;;;;;5.33;2.63;;;20.60;99.90;;;;;;4842026;29;20198;-81
2023/09/20 17:11:03;;;;;;;4.67;2.77;;;20.50;99.90;;;;;;4842071;29;20536;-84
2023/09/20 17:13:39;;;;;;;6.80;3.37;;;20.50;99.90;;;;;;4840998;29;20571;-82
2023/09/20 17:16:11;;;;;;;8.90;3.50;;;20.30;99.90;;;;;;4842245;29;20286;-83
2023/09/20 17:18:46;;;;;;;7.90;3.90;;;20.30;99.90;;;;;;4825600;29;20336;-83
2023/09/20 17:21:18;;;;;;;5.33;3.30;;;20.20;99.90;;;;;;4841877;29;20233;-82
2023/09/20 17:33:06;;;;;;;8.67;4.70;;;20.10;99.90;;;;;;5309962;24;20267;-82
2023/09/20 17:36:21;;;;;;;8.27;4.40;;;20.00;99.90;;;;;;4853138;29;20232;-82
2023/09/20 17:39:00;;;;;;;7.57;4.10;;;20.00;99.90;;;;;;4864189;29;20296;-84
2023/09/20 17:41:40;;;;;;;7.17;3.80;;;20.10;99.90;;;;;;4849629;29;20204;-83
2023/09/20 17:44:26;;;;;;;9.30;3.70;;;19.80;99.90;;;;;;4865234;29;20204;-84
2023/09/20 17:47:09;;;;;;;7.53;3.50;;;19.90;99.90;;;;;;4865339;29;20592;-82
2023/09/20 17:50:38;;;;;;;;;;;;;;;;;;;;;
2023/09/20 17:54:26;;;;;;;8.33;3.50;;;19.70;99.90;;;;;;4862879;29;20229;-83
2023/09/20 18:02:20;;;;;;;;;;;;;;;;;;;;;
2023/09/20 18:05:09;;;;;;;11.00;3.67;;;19.40;99.90;;;;;;4657184;30;20686;-83
2023/09/20 18:12:50;;;;;;;9.23;3.40;;;19.30;99.90;;;;;;4638859;30;20225;-84
2023/09/20 19:06:58;;;;;;;5.60;3.20;;;18.50;99.90;;;;;;6189470;23;20197;-84
2023/09/20 19:10:40;;;;;;;8.27;3.70;;;18.30;99.90;;;;;;6099323;23;20184;-81
2023/09/20 19:18:31;;;;;;;7.90;3.13;;;18.40;99.90;;;;;;5891855;24;20212;-83
2023/09/20 19:21:38;;;;;;;8.60;3.30;;;18.00;99.90;;;;;;5894238;24;20297;-83
2023/09/20 19:28:15;;;;;;;6.83;3.17;;;18.30;99.90;;;;;;5808506;24;20172;-83
2023/09/20 19:30:55;;;;;;;6.90;3.40;;;18.30;99.90;;;;;;5785564;24;20606;-83
2023/09/20 19:33:53;;;;;;;6.97;3.10;;;18.20;99.90;;;;;;5786013;24;20622;-86
2023/09/20 19:37:00;;;;;;;7.10;3.37;;;18.20;99.90;;;;;;5810342;24;20188;-83
2023/09/20 19:39:39;;;;;;;6.70;3.60;;;18.20;99.90;;;;;;5803704;24;20220;-82
2023/09/20 19:42:50;;;;;;;6.00;3.63;;;18.30;99.90;;;;;;5816053;24;20184;-79
2023/09/20 19:46:15;;;;;;;8.77;3.40;;;18.00;99.90;;;;;;5796116;24;20191;-82
2023/09/20 22:03:35;;;;;;;9.03;4.40;;;16.80;99.90;;;;;;6157372;22;20206;-78
2023/09/20 22:07:18;;;;;;;8.93;4.73;;;16.80;99.90;;;;;;6104210;23;20240;-82
2023/09/20 22:10:57;;;;;;;7.43;4.50;;;16.70;99.90;;;;;;6068511;23;20173;-82
2023/09/20 22:14:53;;;;;;;9.83;5.20;;;16.60;99.90;;;;;;5961235;23;20248;-87
